createdAt,value
2023-01-08T00:01:55.608Z,7.16
2023-01-08T00:04:23.746Z,7.26
2023-01-08T00:06:52.229Z,7.06
2023-01-08T00:09:20.762Z,7.06
2023-01-08T00:11:50.370Z,7.03
2023-01-08T00:14:18.501Z,7.02
2023-01-08T00:16:47.008Z,7.10
2023-01-08T00:19:15.377Z,6.95
2023-01-08T00:21:43.510Z,6.94
2023-01-08T00:24:11.736Z,6.98
2023-01-08T00:26:39.926Z,7.07
2023-01-08T00:29:10.002Z,7.05
2023-01-08T00:31:38.144Z,7.00
2023-01-08T00:34:06.324Z,7.04
2023-01-08T00:36:34.478Z,6.96
2023-01-08T00:39:02.797Z,7.11
2023-01-08T00:41:30.927Z,6.91
2023-01-08T00:43:59.072Z,6.82
2023-01-08T00:46:28.551Z,6.81
2023-01-08T00:48:56.709Z,6.81
2023-01-08T00:51:26.216Z,6.86
2023-01-08T00:53:54.353Z,6.80
2023-01-08T00:56:22.539Z,6.80
2023-01-08T00:58:50.654Z,6.85
2023-01-08T01:01:18.979Z,6.85
2023-01-08T01:03:48.607Z,6.75
2023-01-08T01:06:16.734Z,6.55
2023-01-08T01:08:45.239Z,6.67
2023-01-08T01:11:19.595Z,6.64
2023-01-08T01:13:48.124Z,6.50
2023-01-08T01:16:16.512Z,6.50
2023-01-08T01:18:44.805Z,6.51
2023-01-08T01:21:20.829Z,6.46
2023-01-08T01:23:49.081Z,6.42
2023-01-08T01:26:19.108Z,6.49
2023-01-08T01:28:49.839Z,6.35
2023-01-08T01:31:19.712Z,6.35
2023-01-08T01:33:48.763Z,6.32
2023-01-08T01:36:19.960Z,6.33
2023-01-08T01:38:50.052Z,6.18
2023-01-08T01:41:24.470Z,6.24
2023-01-08T01:43:53.652Z,6.22
2023-01-08T01:46:27.933Z,6.16
2023-01-08T01:49:04.162Z,6.25
2023-01-08T01:51:35.513Z,6.27
2023-01-08T01:54:06.311Z,6.31
2023-01-08T01:56:35.059Z,6.24
2023-01-08T01:59:03.860Z,6.05
2023-01-08T02:01:33.156Z,6.30
2023-01-08T02:04:01.668Z,6.26
2023-01-08T02:06:38.199Z,6.12
2023-01-08T02:09:15.413Z,6.14
2023-01-08T02:12:09.761Z,6.19
2023-01-08T02:14:48.325Z,6.10
2023-01-08T02:17:22.103Z,5.93
2023-01-08T02:19:53.781Z,5.95
2023-01-08T02:22:36.974Z,5.90
2023-01-08T02:25:12.303Z,5.87
2023-01-08T02:27:46.092Z,5.86
2023-01-08T02:30:14.395Z,5.84
2023-01-08T02:32:44.165Z,5.90
2023-01-08T02:35:12.874Z,5.90
2023-01-08T02:37:41.962Z,5.63
2023-01-08T02:40:22.339Z,5.76
2023-01-08T02:42:59.054Z,5.56
2023-01-08T02:45:34.747Z,5.40
2023-01-08T02:48:10.262Z,5.38
2023-01-08T02:50:42.513Z,5.33
2023-01-08T02:53:15.162Z,5.50
2023-01-08T02:55:47.976Z,5.36
2023-01-08T02:58:18.901Z,5.34
2023-01-08T03:00:48.077Z,5.41
2023-01-08T03:03:19.921Z,5.34
2023-01-08T03:05:50.880Z,5.40
2023-01-08T03:08:20.538Z,5.29
2023-01-08T03:10:54.255Z,5.22
2023-01-08T03:13:27.812Z,5.03
2023-01-08T03:15:59.969Z,5.09
2023-01-08T03:18:35.111Z,5.05
2023-01-08T03:21:06.432Z,5.10
2023-01-08T03:23:37.064Z,5.03
2023-01-08T03:26:06.996Z,5.05
2023-01-08T03:28:41.923Z,5.07
2023-01-08T03:31:10.646Z,5.05
2023-01-08T03:33:39.325Z,4.92
2023-01-08T03:36:09.142Z,5.03
2023-01-08T03:38:42.917Z,5.07
2023-01-08T03:41:15.881Z,4.95
2023-01-08T03:43:45.909Z,5.08
2023-01-08T03:46:17.345Z,5.03
2023-01-08T03:48:46.782Z,4.90
2023-01-08T03:51:14.973Z,4.96
2023-01-08T03:53:43.179Z,5.04
2023-01-08T03:56:11.334Z,5.05
2023-01-08T03:58:39.543Z,5.01
2023-01-08T04:01:09.163Z,4.92
2023-01-08T04:03:37.863Z,4.85
2023-01-08T04:06:06.268Z,4.84
2023-01-08T04:08:34.418Z,4.64
2023-01-08T04:11:02.531Z,4.69
2023-01-08T04:13:30.875Z,4.83
2023-01-08T04:15:59.105Z,4.67
2023-01-08T04:18:28.657Z,4.81
2023-01-08T04:20:56.796Z,4.84
2023-01-08T04:23:26.146Z,4.90
2023-01-08T04:25:54.473Z,4.93
2023-01-08T04:28:24.699Z,5.03
2023-01-08T04:30:52.923Z,4.98
2023-01-08T04:33:21.107Z,4.97
2023-01-08T04:35:50.587Z,4.83
2023-01-08T04:38:18.801Z,4.85
2023-01-08T04:40:46.954Z,4.83
2023-01-08T04:43:15.103Z,4.80
2023-01-08T04:45:43.252Z,4.87
2023-01-08T04:48:11.369Z,4.94
2023-01-08T04:50:39.483Z,4.95
2023-01-08T04:53:09.549Z,5.04
2023-01-08T04:55:39.672Z,5.07
2023-01-08T04:58:07.980Z,4.98
2023-01-08T05:00:36.652Z,4.99
2023-01-08T05:03:05.039Z,4.97
2023-01-08T05:05:34.777Z,4.97
2023-01-08T05:08:02.942Z,4.98
2023-01-08T05:10:32.564Z,4.88
2023-01-08T05:13:01.471Z,4.94
2023-01-08T05:15:29.933Z,4.94
2023-01-08T05:18:02.315Z,5.07
2023-01-08T05:20:31.119Z,4.96
2023-01-08T05:22:59.432Z,5.11
2023-01-08T05:25:27.569Z,5.06
2023-01-08T05:27:57.401Z,5.03
2023-01-08T05:30:25.546Z,5.17
2023-01-08T05:32:53.984Z,5.13
2023-01-08T05:35:22.136Z,5.26
2023-01-08T05:37:50.370Z,5.23
2023-01-08T05:40:18.571Z,5.22
2023-01-08T05:42:46.736Z,5.24
2023-01-08T05:45:16.818Z,5.17
2023-01-08T05:47:45.328Z,5.33
2023-01-08T05:50:13.502Z,5.25
2023-01-08T05:52:41.730Z,5.36
2023-01-08T05:55:11.195Z,5.35
2023-01-08T05:57:39.421Z,5.45
2023-01-08T06:00:09.800Z,5.33
2023-01-08T06:02:47.492Z,5.23
2023-01-08T06:05:15.863Z,5.42
2023-01-08T06:07:44.000Z,5.42
2023-01-08T06:10:12.251Z,5.46
2023-01-08T06:12:40.430Z,5.54
2023-01-08T06:15:09.622Z,5.42
2023-01-08T06:17:37.869Z,5.49
2023-01-08T06:20:08.392Z,5.30
2023-01-08T06:22:37.077Z,5.48
2023-01-08T06:25:05.799Z,5.51
2023-01-08T06:27:33.944Z,5.44
2023-01-08T06:30:02.081Z,5.60
2023-01-08T06:32:30.224Z,5.60
2023-01-08T06:34:58.358Z,5.56
2023-01-08T06:37:27.918Z,5.66
2023-01-08T06:39:56.063Z,5.60
2023-01-08T06:42:24.219Z,5.69
2023-01-08T06:44:52.424Z,5.81
2023-01-08T06:47:20.627Z,5.82
2023-01-08T06:49:49.799Z,5.90
2023-01-08T06:52:17.987Z,5.75
2023-01-08T06:54:47.488Z,5.79
2023-01-08T06:57:15.623Z,5.91
2023-01-08T06:59:43.791Z,5.98
2023-01-08T07:02:15.131Z,6.01
2023-01-08T07:04:43.524Z,5.98
2023-01-08T07:07:13.690Z,5.89
2023-01-08T07:09:42.541Z,5.80
2023-01-08T07:12:14.643Z,5.80
2023-01-08T07:14:43.020Z,5.96
2023-01-08T07:17:11.419Z,5.88
2023-01-08T07:19:39.799Z,5.87
2023-01-08T07:22:08.043Z,5.87
2023-01-08T07:24:36.286Z,5.98
2023-01-08T07:27:04.651Z,5.81
2023-01-08T07:29:34.140Z,5.84
2023-01-08T07:32:02.357Z,5.86
2023-01-08T07:34:30.796Z,6.00
2023-01-08T07:36:58.990Z,5.83
2023-01-08T07:39:27.136Z,5.83
2023-01-08T07:41:55.283Z,5.98
2023-01-08T07:44:24.261Z,6.05
2023-01-08T07:46:53.988Z,6.07
2023-01-08T07:49:22.201Z,5.99
2023-01-08T07:51:50.474Z,5.95
2023-01-08T07:54:18.829Z,6.23
2023-01-08T07:56:47.041Z,6.15
2023-01-08T07:59:15.162Z,6.20
2023-01-08T08:01:43.358Z,6.21
2023-01-08T08:04:15.763Z,6.26
2023-01-08T08:06:43.945Z,6.21
2023-01-08T08:09:12.072Z,6.34
2023-01-08T08:11:40.189Z,6.34
2023-01-08T08:14:08.764Z,6.39
2023-01-08T08:16:37.038Z,6.37
2023-01-08T08:19:05.487Z,6.40
2023-01-08T08:21:35.042Z,6.51
2023-01-08T08:24:03.234Z,6.54
2023-01-08T08:26:31.499Z,6.59
2023-01-08T08:28:59.619Z,6.68
2023-01-08T08:31:28.151Z,6.61
2023-01-08T08:33:56.344Z,6.62
2023-01-08T08:36:29.801Z,6.84
2023-01-08T08:38:59.304Z,6.87
2023-01-08T08:41:27.439Z,6.97
2023-01-08T08:43:55.623Z,7.02
2023-01-08T08:46:25.440Z,7.03
2023-01-08T08:48:53.693Z,7.08
2023-01-08T08:51:21.827Z,7.01
2023-01-08T08:53:50.017Z,6.99
2023-01-08T08:56:19.684Z,7.07
2023-01-08T08:58:47.804Z,7.01
2023-01-08T09:01:16.044Z,7.07
2023-01-08T09:03:44.252Z,7.14
2023-01-08T09:06:14.864Z,7.18
2023-01-08T09:08:43.040Z,7.23
2023-01-08T09:11:13.114Z,7.25
2023-01-08T09:13:43.735Z,7.24
2023-01-08T09:16:12.002Z,7.29
2023-01-08T09:18:40.161Z,7.30
2023-01-08T09:21:09.427Z,7.55
2023-01-08T09:23:38.740Z,7.54
2023-01-08T09:26:07.422Z,7.79
2023-01-08T09:28:35.633Z,7.74
2023-01-08T09:31:05.492Z,7.76
2023-01-08T09:33:34.348Z,7.69
2023-01-08T09:36:02.554Z,7.78
2023-01-08T09:38:30.768Z,7.80
2023-01-08T09:41:04.444Z,7.89
2023-01-08T09:43:36.461Z,7.95
2023-01-08T09:46:08.346Z,8.11
2023-01-08T09:48:39.204Z,7.94
2023-01-08T09:51:12.155Z,8.05
2023-01-08T09:53:40.629Z,8.07
2023-01-08T09:56:15.054Z,7.90
2023-01-08T09:58:48.928Z,7.99
2023-01-08T10:01:20.953Z,7.99
2023-01-08T10:03:52.171Z,8.09
2023-01-08T10:06:20.354Z,8.00
2023-01-08T10:08:48.517Z,8.04
2023-01-08T10:11:17.281Z,7.99
2023-01-08T10:13:50.429Z,8.16
2023-01-08T10:16:27.194Z,8.26
2023-01-08T10:18:55.425Z,8.52
2023-01-08T10:21:29.602Z,8.45
2023-01-08T10:23:58.192Z,8.49
2023-01-08T10:26:28.673Z,8.39
2023-01-08T10:29:17.591Z,8.47
2023-01-08T10:31:49.960Z,8.60
2023-01-08T10:34:28.322Z,8.62
2023-01-08T10:36:57.388Z,8.56
2023-01-08T10:39:28.354Z,8.56
2023-01-08T10:41:59.035Z,8.57
2023-01-08T10:44:27.451Z,8.48
2023-01-08T10:47:01.192Z,8.45
2023-01-08T10:49:34.658Z,8.35
2023-01-08T10:52:02.815Z,8.39
2023-01-08T10:54:35.739Z,8.28
2023-01-08T10:57:04.664Z,8.35
2023-01-08T10:59:32.924Z,8.34
2023-01-08T11:02:03.163Z,8.24
2023-01-08T11:04:34.829Z,8.17
2023-01-08T11:07:05.933Z,8.14
2023-01-08T11:09:36.051Z,8.24
2023-01-08T11:12:04.542Z,8.29
2023-01-08T11:14:35.199Z,8.38
2023-01-08T11:17:11.660Z,8.27
2023-01-08T11:19:40.722Z,8.32
2023-01-08T11:22:20.171Z,8.22
2023-01-08T11:24:50.490Z,8.34
2023-01-08T11:27:26.245Z,8.37
2023-01-08T11:30:01.728Z,8.36
2023-01-08T11:32:47.314Z,8.34
2023-01-08T11:35:20.600Z,8.33
2023-01-08T11:37:53.595Z,8.41
2023-01-08T11:40:32.548Z,8.51
2023-01-08T11:43:25.782Z,8.74
2023-01-08T11:46:14.198Z,8.64
2023-01-08T11:48:56.346Z,8.73
2023-01-08T11:51:52.872Z,8.70
2023-01-08T11:54:31.679Z,8.55
2023-01-08T11:57:13.549Z,8.74
2023-01-08T11:59:57.331Z,8.65
2023-01-08T12:02:41.479Z,8.77
2023-01-08T12:05:30.634Z,8.59
2023-01-08T12:08:06.267Z,8.74
2023-01-08T12:10:45.944Z,8.60
2023-01-08T12:13:29.311Z,8.58
2023-01-08T12:16:08.652Z,8.62
2023-01-08T12:18:47.628Z,8.75
2023-01-08T12:21:26.452Z,8.63
2023-01-08T12:24:20.435Z,8.75
2023-01-08T12:26:59.597Z,8.79
2023-01-08T12:29:58.204Z,8.96
2023-01-08T12:32:30.104Z,8.78
2023-01-08T12:35:05.103Z,8.87
2023-01-08T12:37:43.015Z,8.79
2023-01-08T12:40:16.483Z,8.74
2023-01-08T12:42:47.421Z,8.77
2023-01-08T12:45:26.201Z,8.95
2023-01-08T12:47:59.490Z,8.88
2023-01-08T12:50:42.905Z,8.76
2023-01-08T12:53:19.496Z,8.88
2023-01-08T12:55:56.771Z,8.88
2023-01-08T12:58:32.695Z,8.92
2023-01-08T13:01:13.097Z,8.87
2023-01-08T13:03:41.567Z,8.86
2023-01-08T13:06:13.101Z,8.90
2023-01-08T13:08:46.424Z,8.91
2023-01-08T13:11:26.154Z,9.01
2023-01-08T13:14:01.763Z,9.12
2023-01-08T13:16:31.781Z,8.99
2023-01-08T13:19:01.971Z,8.97
2023-01-08T13:21:36.841Z,8.91
2023-01-08T13:24:24.096Z,8.96
2023-01-08T13:26:53.613Z,8.77
2023-01-08T13:29:36.674Z,8.85
2023-01-08T13:32:05.054Z,8.87
2023-01-08T13:34:40.181Z,8.71
2023-01-08T13:37:16.393Z,8.84
2023-01-08T13:39:52.612Z,8.80
2023-01-08T13:42:28.467Z,8.72
2023-01-08T13:45:02.383Z,8.55
2023-01-08T13:47:34.085Z,8.66
2023-01-08T13:50:06.285Z,8.68
2023-01-08T13:52:40.215Z,8.59
2023-01-08T13:55:16.244Z,8.51
2023-01-08T13:57:49.424Z,8.53
2023-01-08T14:00:23.583Z,8.45
2023-01-08T14:02:52.163Z,8.41
2023-01-08T14:05:24.147Z,8.61
2023-01-08T14:07:52.632Z,8.51
2023-01-08T14:10:23.418Z,8.48
2023-01-08T14:12:52.533Z,8.40
2023-01-08T14:15:27.524Z,8.31
2023-01-08T14:17:57.831Z,8.30
2023-01-08T14:20:33.668Z,8.36
2023-01-08T14:23:03.208Z,8.14
2023-01-08T14:25:32.891Z,8.06
2023-01-08T14:28:02.857Z,8.12
2023-01-08T14:30:31.382Z,8.12
2023-01-08T14:33:01.652Z,8.02
2023-01-08T14:35:34.526Z,7.94
2023-01-08T14:38:05.627Z,7.82
2023-01-08T14:40:40.484Z,7.91
2023-01-08T14:43:12.680Z,8.04
2023-01-08T14:45:47.507Z,7.77
2023-01-08T14:48:21.845Z,7.69
2023-01-08T14:51:12.690Z,7.62
2023-01-08T14:53:46.159Z,7.58
2023-01-08T14:56:19.634Z,7.55
2023-01-08T14:58:48.250Z,7.51
2023-01-08T15:01:19.343Z,7.77
2023-01-08T15:03:49.860Z,7.60
2023-01-08T15:06:29.001Z,7.59
2023-01-08T15:08:57.572Z,7.65
2023-01-08T15:11:31.288Z,7.56
2023-01-08T15:14:00.009Z,7.59
2023-01-08T15:16:31.588Z,7.56
2023-01-08T15:19:06.193Z,7.37
2023-01-08T15:21:35.817Z,7.29
2023-01-08T15:24:05.935Z,7.22
2023-01-08T15:26:35.570Z,7.42
2023-01-08T15:29:07.548Z,7.37
2023-01-08T15:31:47.669Z,7.40
2023-01-08T15:34:19.011Z,7.27
2023-01-08T15:36:47.828Z,7.30
2023-01-08T15:39:15.996Z,7.24
2023-01-08T15:42:03.266Z,7.34
2023-01-08T15:44:31.401Z,7.22
2023-01-08T15:46:59.635Z,7.13
2023-01-08T15:49:27.770Z,7.25
2023-01-08T15:51:56.101Z,7.24
2023-01-08T15:54:26.185Z,7.20
2023-01-08T15:56:55.782Z,7.04
2023-01-08T15:59:23.928Z,7.11
2023-01-08T16:01:52.256Z,7.14
2023-01-08T16:04:20.432Z,7.09
2023-01-08T16:06:51.922Z,7.01
2023-01-08T16:09:20.140Z,6.87
2023-01-08T16:11:49.631Z,6.97
2023-01-08T16:14:19.146Z,7.01
2023-01-08T16:16:47.443Z,6.87
2023-01-08T16:19:15.646Z,6.85
2023-01-08T16:21:46.947Z,6.83
2023-01-08T16:24:15.240Z,6.75
2023-01-08T16:26:43.395Z,6.86
2023-01-08T16:29:11.582Z,6.94
2023-01-08T16:31:45.951Z,6.82
2023-01-08T16:34:15.290Z,6.93
2023-01-08T16:36:43.877Z,6.84
2023-01-08T16:39:12.058Z,6.72
2023-01-08T16:41:40.217Z,6.84
2023-01-08T16:44:14.258Z,6.90
2023-01-08T16:46:43.716Z,6.82
2023-01-08T16:49:11.843Z,6.80
2023-01-08T16:51:40.105Z,6.75
2023-01-08T16:54:08.612Z,6.87
2023-01-08T16:56:36.742Z,6.81
2023-01-08T16:59:09.297Z,6.78
2023-01-08T17:01:44.529Z,6.89
2023-01-08T17:04:12.866Z,6.85
2023-01-08T17:06:41.017Z,6.85
2023-01-08T17:09:11.417Z,6.64
2023-01-08T17:11:40.044Z,6.69
2023-01-08T17:14:08.208Z,6.64
2023-01-08T17:16:36.477Z,6.68
2023-01-08T17:19:06.210Z,6.71
2023-01-08T17:21:36.042Z,6.67
2023-01-08T17:24:04.616Z,6.75
2023-01-08T17:26:32.882Z,6.62
2023-01-08T17:29:01.060Z,6.62
2023-01-08T17:31:29.292Z,6.50
2023-01-08T17:33:57.510Z,6.58
2023-01-08T17:36:28.084Z,6.58
2023-01-08T17:38:56.479Z,6.41
2023-01-08T17:41:42.485Z,6.40
2023-01-08T17:44:12.991Z,6.45
2023-01-08T17:46:44.482Z,6.30
2023-01-08T17:49:14.672Z,6.31
2023-01-08T17:51:45.806Z,6.23
2023-01-08T17:54:17.083Z,6.33
2023-01-08T17:56:45.627Z,6.33
2023-01-08T17:59:16.177Z,6.21
2023-01-08T18:01:45.215Z,6.11
2023-01-08T18:04:13.560Z,6.05
2023-01-08T18:06:41.815Z,6.20
2023-01-08T18:09:12.625Z,6.09
2023-01-08T18:11:41.187Z,6.18
2023-01-08T18:14:11.590Z,5.94
2023-01-08T18:16:40.207Z,5.94
2023-01-08T18:19:08.414Z,6.04
2023-01-08T18:21:36.658Z,5.97
2023-01-08T18:24:05.027Z,5.96
2023-01-08T18:26:34.505Z,5.99
2023-01-08T18:29:02.748Z,5.98
2023-01-08T18:31:30.999Z,5.96
2023-01-08T18:33:59.972Z,5.96
2023-01-08T18:36:28.495Z,6.00
2023-01-08T18:38:58.033Z,5.90
2023-01-08T18:41:44.020Z,5.75
2023-01-08T18:44:13.580Z,5.87
2023-01-08T18:46:41.822Z,5.96
2023-01-08T18:49:09.986Z,5.87
2023-01-08T18:51:38.151Z,5.99
2023-01-08T18:54:08.321Z,5.94
2023-01-08T18:56:37.410Z,5.96
2023-01-08T18:59:07.146Z,5.90
2023-01-08T19:01:37.154Z,5.86
2023-01-08T19:04:05.615Z,6.14
2023-01-08T19:06:34.268Z,6.10
2023-01-08T19:09:02.558Z,6.07
2023-01-08T19:11:30.724Z,5.97
2023-01-08T19:13:58.925Z,5.98
2023-01-08T19:16:27.499Z,6.20
2023-01-08T19:18:57.404Z,5.95
2023-01-08T19:21:25.661Z,5.96
2023-01-08T19:23:54.697Z,5.89
2023-01-08T19:26:22.933Z,5.93
2023-01-08T19:28:51.197Z,5.95
2023-01-08T19:31:19.639Z,6.01
2023-01-08T19:33:47.862Z,5.89
2023-01-08T19:36:19.562Z,5.86
2023-01-08T19:38:47.881Z,5.97
2023-01-08T19:41:33.727Z,6.04
2023-01-08T19:44:01.967Z,6.04
2023-01-08T19:46:30.945Z,5.97
2023-01-08T19:49:00.116Z,5.93
2023-01-08T19:51:33.350Z,5.81
2023-01-08T19:54:02.009Z,5.82
2023-01-08T19:56:30.231Z,5.67
2023-01-08T19:58:58.619Z,5.72
2023-01-08T20:01:28.305Z,5.67
2023-01-08T20:03:57.319Z,5.60
2023-01-08T20:06:27.443Z,5.64
2023-01-08T20:08:59.052Z,5.64
2023-01-08T20:11:28.422Z,5.68
2023-01-08T20:14:00.278Z,5.54
2023-01-08T20:16:29.532Z,5.47
2023-01-08T20:18:59.210Z,5.37
2023-01-08T20:21:27.330Z,5.39
2023-01-08T20:23:59.139Z,5.32
2023-01-08T20:26:29.088Z,5.29
2023-01-08T20:28:58.476Z,5.22
2023-01-08T20:31:31.142Z,5.14
2023-01-08T20:34:00.487Z,5.13
2023-01-08T20:36:30.505Z,5.04
2023-01-08T20:39:02.780Z,5.17
2023-01-08T20:41:31.134Z,5.18
2023-01-08T20:43:59.371Z,5.26
2023-01-08T20:46:29.506Z,5.20
2023-01-08T20:48:59.691Z,5.09
2023-01-08T20:51:27.987Z,5.14
2023-01-08T20:53:56.545Z,5.24
2023-01-08T20:56:26.069Z,5.19
2023-01-08T20:58:54.263Z,5.10
2023-01-08T21:01:24.284Z,4.96
2023-01-08T21:03:56.879Z,4.92
2023-01-08T21:06:27.605Z,4.92
2023-01-08T21:08:58.255Z,4.87
2023-01-08T21:11:28.328Z,5.00
2023-01-08T21:13:56.879Z,5.10
2023-01-08T21:16:28.363Z,5.11
2023-01-08T21:18:57.987Z,4.84
2023-01-08T21:21:28.746Z,4.76
2023-01-08T21:23:57.700Z,4.90
2023-01-08T21:26:27.435Z,4.88
2023-01-08T21:28:56.419Z,4.85
2023-01-08T21:31:28.400Z,4.87
2023-01-08T21:33:58.468Z,4.85
2023-01-08T21:36:29.160Z,4.80
2023-01-08T21:38:58.635Z,4.82
2023-01-08T21:41:47.124Z,4.71
2023-01-08T21:44:31.935Z,4.83
2023-01-08T21:47:00.786Z,4.68
2023-01-08T21:49:29.359Z,4.88
2023-01-08T21:52:15.263Z,4.90
2023-01-08T21:54:43.682Z,4.93
2023-01-08T21:57:13.191Z,4.83
2023-01-08T21:59:41.723Z,4.79
2023-01-08T22:02:16.049Z,4.73
2023-01-08T22:04:45.367Z,4.76
2023-01-08T22:07:14.660Z,4.70
2023-01-08T22:09:42.842Z,4.55
2023-01-08T22:12:11.089Z,4.56
2023-01-08T22:14:40.613Z,4.56
2023-01-08T22:17:09.205Z,4.61
2023-01-08T22:19:38.728Z,4.71
2023-01-08T22:22:10.286Z,4.49
2023-01-08T22:24:39.198Z,4.31
2023-01-08T22:27:08.015Z,4.25
2023-01-08T22:29:36.388Z,4.30
2023-01-08T22:32:06.495Z,4.24
2023-01-08T22:34:35.824Z,4.08
2023-01-08T22:37:04.179Z,4.24
2023-01-08T22:39:32.364Z,3.91
2023-01-08T22:42:00.993Z,4.05
2023-01-08T22:44:29.427Z,4.10
2023-01-08T22:46:59.121Z,4.02
2023-01-08T22:49:28.692Z,4.20
2023-01-08T22:51:57.091Z,3.94
2023-01-08T22:54:25.285Z,4.03
2023-01-08T22:56:53.435Z,4.19
2023-01-08T22:59:21.852Z,4.09
2023-01-08T23:01:50.054Z,3.88
2023-01-08T23:04:18.282Z,3.98
2023-01-08T23:06:48.095Z,3.99
2023-01-08T23:09:16.384Z,3.87
2023-01-08T23:11:44.531Z,4.01
2023-01-08T23:14:15.276Z,3.79
2023-01-08T23:16:43.963Z,3.79
2023-01-08T23:19:12.611Z,3.91
2023-01-08T23:21:40.885Z,3.90
2023-01-08T23:24:14.464Z,3.97
2023-01-08T23:26:43.557Z,3.91
2023-01-08T23:29:11.857Z,3.97
2023-01-08T23:31:40.238Z,4.03
2023-01-08T23:34:08.672Z,3.92
2023-01-08T23:36:36.913Z,3.89
2023-01-08T23:39:05.843Z,3.68
2023-01-08T23:41:35.502Z,3.66
2023-01-08T23:44:06.589Z,3.67
2023-01-08T23:46:35.947Z,3.67
2023-01-08T23:49:04.696Z,3.80
2023-01-08T23:51:32.830Z,3.70
2023-01-08T23:54:01.206Z,3.92
2023-01-08T23:56:29.509Z,3.74
2023-01-08T23:58:59.237Z,3.82
